Time;durP1;ratioP1;P1;durP2;ratioP2;P2;SDS_P1;SDS_P2;PMS_P1;PMS_P2;Temp;Humidity;BMP_temperature;BMP_pressure;BME280_temperature;BME280_humidity;BME280_pressure;Samples;Min_cycle;Max_cycle;Signal;HPM_P1;HPM_P2
2021/01/26 06:05:32;;;;;;;6.95;3.72;;;;;;;3.24;87.17;97664.99;1684083;82;948272;-57
2021/01/26 06:08:13;;;;;;;4.85;3.22;;;;;;;3.31;87.31;97661.28;1701985;84;21248;-58
2021/01/26 06:10:44;;;;;;;5.05;3.50;;;;;;;3.38;87.27;97668.21;1699198;83;21695;-58
2021/01/26 06:13:12;;;;;;;7.87;3.35;;;;;;;3.43;87.13;97663.38;1693973;84;21204;-57
2021/01/26 06:15:42;;;;;;;5.20;3.60;;;;;;;3.45;87.10;97664.50;1674378;84;21237;-58
2021/01/26 06:18:20;;;;;;;6.33;3.55;;;;;;;3.44;86.87;97663.69;1675793;84;21251;-58
2021/01/26 06:21:14;;;;;;;7.75;3.87;;;;;;;3.50;86.97;97664.82;1826551;77;22243;-57
2021/01/26 06:23:40;;;;;;;6.62;3.60;;;;;;;3.44;86.99;97655.95;1771047;78;21597;-58
2021/01/26 06:26:10;;;;;;;6.60;3.90;;;;;;;3.45;87.08;97664.01;1769259;78;21158;-57
2021/01/26 06:28:53;;;;;;;3.62;3.02;;;;;;;3.45;87.13;97659.33;1776576;78;21178;-61
2021/01/26 06:32:00;;;;;;;3.72;2.83;;;;;;;3.50;87.23;97660.46;1765282;80;21139;-58
2021/01/26 06:34:50;;;;;;;6.58;3.30;;;;;;;3.56;87.23;97660.30;1792496;80;21313;-60
2021/01/26 06:37:40;;;;;;;4.25;3.10;;;;;;;3.63;87.21;97661.74;1772468;80;21265;-57
2021/01/26 06:40:36;;;;;;;5.08;3.42;;;;;;;3.67;87.22;97662.55;1779264;78;21594;-57
2021/01/26 06:43:36;;;;;;;;;;;;;;;3.68;87.10;97658.19;1775492;80;21589;-57
2021/01/26 06:46:43;;;;;;;5.08;3.75;;;;;;;3.73;87.48;97654.14;1785605;80;20139;-57
2021/01/26 06:49:54;;;;;;;5.05;3.17;;;;;;;3.68;87.71;97653.02;1761997;81;21167;-57
2021/01/26 06:52:53;;;;;;;5.05;3.08;;;;;;;3.73;88.02;97665.77;1767953;78;21582;-56
2021/01/26 06:55:36;;;;;;;3.52;2.45;;;;;;;3.86;88.23;97668.33;1719684;81;21743;-57
2021/01/26 06:58:36;;;;;;;2.60;2.20;;;;;;;3.97;88.25;97680.39;1756385;81;21578;-56
2021/01/26 07:01:34;;;;;;;3.10;2.15;;;;;;;4.08;88.16;97692.65;1721051;81;21153;-57
2021/01/26 07:04:20;;;;;;;1.62;1.07;;;;;;;4.17;87.78;97700.72;1722784;82;21722;-58
2021/01/26 07:07:00;;;;;;;1.85;0.90;;;;;;;4.17;86.88;97703.30;1719373;82;21160;-58
2021/01/26 07:10:03;;;;;;;1.10;1.00;;;;;;;4.10;86.03;97714.79;1714730;82;22322;-58
2021/01/26 07:13:14;;;;;;;2.65;1.10;;;;;;;4.07;85.60;97724.15;1667165;82;21605;-58
2021/01/26 07:16:05;;;;;;;0.70;0.70;;;;;;;3.92;84.39;97732.27;1705646;82;21153;-58
2021/01/26 07:19:15;;;;;;;1.62;1.02;;;;;;;3.69;82.93;97747.61;1704764;83;21212;-56
2021/01/26 07:22:24;;;;;;;1.35;0.70;;;;;;;3.44;82.42;97755.83;1715410;83;21517;-57
2021/01/26 07:25:42;;;;;;;0.65;0.57;;;;;;;3.22;82.76;97764.48;1708398;83;21732;-56
2021/01/26 07:28:28;;;;;;;1.25;0.90;;;;;;;3.15;83.11;97773.83;1731990;82;21150;-56
2021/01/26 07:31:16;;;;;;;3.52;2.10;;;;;;;3.17;83.13;97783.53;1670874;83;21227;-56
2021/01/26 07:33:52;;;;;;;1.15;1.05;;;;;;;3.20;82.85;97788.85;1717206;83;21649;-56
2021/01/26 07:36:26;;;;;;;1.00;0.90;;;;;;;3.21;82.45;97795.14;1687726;82;21195;-57
2021/01/26 07:39:15;;;;;;;0.93;0.70;;;;;;;3.18;82.19;97794.17;1708245;83;21206;-57
2021/01/26 07:42:05;;;;;;;1.07;0.72;;;;;;;3.12;82.23;97792.23;1633797;86;21372;-56
2021/01/26 07:44:51;;;;;;;2.33;1.10;;;;;;;3.17;82.06;97800.31;1837230;77;22217;-56
2021/01/26 07:47:40;;;;;;;1.25;1.00;;;;;;;3.16;81.95;97796.57;1775426;80;21622;-56
2021/01/26 07:50:16;;;;;;;1.55;0.85;;;;;;;3.11;81.67;97807.39;1793104;80;21581;-55
2021/01/26 07:52:47;;;;;;;1.05;0.85;;;;;;;3.04;81.70;97805.56;1793343;78;21574;-58
2021/01/26 07:55:34;;;;;;;1.20;1.10;;;;;;;2.96;81.43;97816.19;1817129;78;21162;-56
2021/01/26 07:58:07;;;;;;;1.70;0.88;;;;;;;2.93;81.61;97831.19;1758043;81;21578;-57
2021/01/26 08:00:38;;;;;;;0.70;0.70;;;;;;;2.90;81.67;97845.66;1781227;80;21147;-56
2021/01/26 08:03:06;;;;;;;1.52;1.00;;;;;;;2.88;81.59;97838.09;1758249;81;21312;-56
2021/01/26 08:05:50;;;;;;;3.22;1.32;;;;;;;2.87;81.73;97850.66;1756317;81;21621;-56
2021/01/26 08:08:37;;;;;;;1.55;0.98;;;;;;;2.82;81.55;97859.82;1752764;81;21767;-57
2021/01/26 08:11:13;;;;;;;2.30;1.30;;;;;;;2.78;81.75;97864.47;1724329;81;21219;-57
2021/01/26 08:13:55;;;;;;;2.27;1.47;;;;;;;2.74;81.82;97877.84;1745162;81;21613;-58
2021/01/26 08:16:40;;;;;;;2.52;2.08;;;;;;;2.77;81.81;97881.39;1719476;83;21301;-57
2021/01/26 08:19:35;;;;;;;2.67;1.85;;;;;;;2.78;81.58;97883.00;1715812;83;21236;-57
2021/01/26 08:22:20;;;;;;;3.12;2.12;;;;;;;2.78;81.21;97891.55;1682344;82;21347;-58
2021/01/26 08:25:28;;;;;;;2.62;2.22;;;;;;;2.67;81.02;97904.23;1819698;77;22811;-56
2021/01/26 08:28:06;;;;;;;3.42;2.47;;;;;;;2.51;81.11;97909.27;1785593;80;21589;-58
2021/01/26 08:30:48;;;;;;;4.90;2.60;;;;;;;2.44;81.26;97917.28;1742684;81;21616;-58
2021/01/26 08:33:22;;;;;;;5.80;3.67;;;;;;;2.34;81.49;97925.56;1721937;83;21603;-57
2021/01/26 08:36:36;;;;;;;6.42;4.08;;;;;;;2.32;81.58;97924.43;1753745;81;21142;-56
2021/01/26 08:39:16;;;;;;;5.95;3.98;;;;;;;2.31;81.46;97929.74;1708358;82;21809;-56
2021/01/26 08:41:51;;;;;;;7.12;4.37;;;;;;;2.22;81.66;97935.28;1704903;82;22279;-57
2021/01/26 08:44:26;;;;;;;6.55;4.22;;;;;;;2.17;81.74;97929.77;1725206;81;21156;-57
2021/01/26 08:46:55;;;;;;;7.62;4.90;;;;;;;2.21;81.70;97946.55;1717228;83;21511;-57
2021/01/26 08:49:34;;;;;;;6.95;5.05;;;;;;;2.24;81.67;97951.91;1710793;83;21614;-57
2021/01/26 08:52:25;;;;;;;7.62;4.70;;;;;;;2.23;81.34;97956.70;1717463;83;21589;-56
2021/01/26 08:54:55;;;;;;;8.80;5.37;;;;;;;2.24;81.21;97927.44;1710618;82;21579;-58
2021/01/26 08:57:35;;;;;;;7.55;5.03;;;;;;;2.24;81.02;97946.28;1719351;83;21531;-58
2021/01/26 09:00:24;;;;;;;11.28;6.33;;;;;;;2.24;80.72;97960.45;1728503;82;21146;-58
2021/01/26 09:02:52;;;;;;;10.45;5.92;;;;;;;2.25;80.90;97965.93;1711968;82;21213;-58
2021/01/26 09:05:41;;;;;;;10.38;5.80;;;;;;;2.30;80.59;97970.17;1705943;84;21569;-58
2021/01/26 09:08:10;;;;;;;10.15;6.03;;;;;;;2.31;80.17;97959.37;1695375;84;21214;-58
2021/01/26 09:10:53;;;;;;;9.90;6.22;;;;;;;2.27;80.00;97961.91;1707498;83;21563;-57
2021/01/26 09:13:26;;;;;;;;;;;;;;;2.29;79.98;97967.23;1706531;83;21159;-58
2021/01/26 09:15:58;;;;;;;10.78;6.45;;;;;;;2.25;79.81;97957.39;1663074;85;20441;-57
2021/01/26 09:18:27;;;;;;;9.95;6.17;;;;;;;2.24;79.53;97970.76;1701570;84;21665;-56
2021/01/26 09:21:03;;;;;;;9.70;6.20;;;;;;;2.24;79.88;97979.78;1700666;84;21224;-56
2021/01/26 09:23:32;;;;;;;11.10;5.97;;;;;;;2.32;79.65;97973.87;1696579;84;21212;-57
2021/01/26 09:26:05;;;;;;;10.18;6.72;;;;;;;2.35;79.39;97980.82;1752033;82;21162;-56
2021/01/26 09:28:39;;;;;;;9.25;6.25;;;;;;;2.35;79.15;97970.99;1699717;82;21590;-57
2021/01/26 09:31:07;;;;;;;14.50;7.12;;;;;;;2.38;79.06;97974.58;1759125;81;21574;-56
2021/01/26 09:33:36;;;;;;;11.55;7.33;;;;;;;2.42;78.75;97978.01;1722414;82;21185;-56
2021/01/26 09:36:17;;;;;;;10.68;6.53;;;;;;;2.49;78.63;97979.99;1753643;82;21166;-57
2021/01/26 09:38:49;;;;;;;10.15;6.80;;;;;;;2.55;78.50;97975.53;1752155;82;21700;-57
2021/01/26 09:41:25;;;;;;;9.80;6.58;;;;;;;2.59;78.37;97976.83;1754445;81;21317;-56
2021/01/26 09:44:07;;;;;;;11.08;6.40;;;;;;;2.60;77.87;97984.89;1753381;81;21281;-57
2021/01/26 09:46:52;;;;;;;10.08;6.17;;;;;;;2.56;77.45;97980.53;1734652;82;21268;-58
2021/01/26 09:49:27;;;;;;;12.00;7.05;;;;;;;2.58;77.42;97996.66;1752609;82;21159;-58
2021/01/26 09:52:10;;;;;;;15.40;8.10;;;;;;;2.59;77.32;98000.84;1751277;81;21163;-56
2021/01/26 09:54:41;;;;;;;11.80;6.25;;;;;;;2.58;76.98;98003.58;1743015;81;21649;-55
2021/01/26 09:57:13;;;;;;;11.48;7.03;;;;;;;2.59;77.17;98000.03;1752660;82;21449;-57
2021/01/26 11:25:49;;;;;;;12.68;4.87;;;;;;;2.48;72.83;98056.48;1746169;82;21615;-58
2021/01/26 11:28:17;;;;;;;5.87;3.58;;;;;;;2.47;72.94;98061.80;1728247;81;21617;-56
2021/01/26 11:30:46;;;;;;;5.60;3.52;;;;;;;2.50;73.00;98058.95;1735764;81;21181;-57
2021/01/26 11:33:15;;;;;;;3.92;3.08;;;;;;;2.51;72.57;98063.14;1745307;81;21595;-57
2021/01/26 11:35:43;;;;;;;5.45;3.33;;;;;;;2.50;72.49;98074.41;1745819;82;21216;-58
2021/01/26 11:38:12;;;;;;;5.55;3.08;;;;;;;2.45;72.18;98073.55;1742726;82;21562;-57
2021/01/26 11:40:41;;;;;;;10.43;4.45;;;;;;;2.43;72.60;98067.74;1747866;82;21587;-57
2021/01/26 11:43:10;;;;;;;5.55;3.15;;;;;;;2.44;72.66;98070.65;1741525;81;21720;-56
2021/01/26 11:45:38;;;;;;;4.78;3.35;;;;;;;2.48;72.21;98077.11;1738574;82;21567;-56
2021/01/26 11:48:08;;;;;;;3.58;3.02;;;;;;;2.49;72.03;98074.08;1744207;82;21578;-57
2021/01/26 11:50:38;;;;;;;4.08;3.10;;;;;;;2.45;72.17;98070.17;1739947;81;21076;-58
2021/01/26 11:53:12;;;;;;;7.95;4.33;;;;;;;2.49;72.25;98068.92;1735768;82;21558;-58
2021/01/26 11:55:40;;;;;;;7.67;3.15;;;;;;;2.51;72.15;98081.19;1745663;81;21187;-59
2021/01/26 11:58:11;;;;;;;11.50;5.47;;;;;;;2.50;71.93;98080.37;1707026;83;21554;-59
2021/01/26 12:00:40;;;;;;;11.25;5.45;;;;;;;2.52;71.87;98091.34;1707069;84;21213;-59
2021/01/26 12:03:09;;;;;;;6.85;3.87;;;;;;;2.50;71.75;98085.53;1742715;82;21645;-59
2021/01/26 12:05:39;;;;;;;6.60;3.90;;;;;;;2.46;72.04;98087.25;1743207;82;22342;-59
2021/01/26 12:08:07;;;;;;;3.62;2.60;;;;;;;2.46;72.04;98087.25;1732131;82;21164;-59
2021/01/26 12:10:36;;;;;;;5.12;2.90;;;;;;;2.50;72.01;98066.67;1737490;82;21648;-59
2021/01/26 12:13:05;;;;;;;4.30;2.45;;;;;;;2.51;71.76;98092.30;1737223;82;21623;-59
2021/01/26 12:23:35;;;;;;;8.88;4.17;;;;;;;2.58;71.32;98110.09;1742712;82;21144;-58
2021/01/26 12:26:07;;;;;;;16.85;5.72;;;;;;;2.56;71.23;98106.05;1737856;81;21204;-58
2021/01/26 12:28:34;;;;;;;12.33;4.87;;;;;;;2.54;70.76;98105.37;1734218;82;21166;-58
2021/01/26 12:31:03;;;;;;;11.50;5.47;;;;;;;2.50;70.62;98107.45;1730926;82;22317;-57
2021/01/26 12:33:32;;;;;;;8.05;3.60;;;;;;;2.46;70.65;98124.63;1704140;84;21197;-57
2021/01/26 12:36:01;;;;;;;10.95;4.72;;;;;;;2.42;70.81;98115.91;1705176;83;21650;-57
2021/01/26 12:38:31;;;;;;;11.43;4.25;;;;;;;2.45;70.77;98121.24;1704940;84;21138;-57
2021/01/26 12:40:59;;;;;;;9.65;4.80;;;;;;;2.43;70.69;98123.16;1716850;82;21170;-57
2021/01/26 12:43:28;;;;;;;8.33;4.47;;;;;;;2.45;70.64;98119.95;1729678;82;21609;-57
2021/01/26 12:45:56;;;;;;;5.83;3.52;;;;;;;2.43;70.94;98123.97;1717925;82;21613;-57
2021/01/26 12:48:24;;;;;;;4.50;3.12;;;;;;;2.43;70.60;98130.42;1651362;86;21725;-57
2021/01/26 12:50:53;;;;;;;4.35;3.10;;;;;;;2.43;70.48;98124.45;1682886;85;21598;-57
2021/01/26 12:53:22;;;;;;;4.60;2.33;;;;;;;2.43;70.53;98137.34;1677190;85;21182;-57
2021/01/26 12:55:50;;;;;;;5.62;3.45;;;;;;;2.46;70.57;98127.20;1706264;82;21282;-57
2021/01/26 12:58:18;;;;;;;2.85;2.22;;;;;;;2.51;70.40;98140.00;1685456;84;21669;-57
2021/01/26 13:00:48;;;;;;;1.98;1.75;;;;;;;2.48;70.05;98132.54;1686539;85;21329;-57
2021/01/26 13:03:16;;;;;;;4.33;2.75;;;;;;;2.48;70.05;98132.54;1685177;84;21614;-56
2021/01/26 13:05:45;;;;;;;4.90;3.02;;;;;;;2.46;69.88;98147.83;1686748;84;21762;-56
2021/01/26 13:08:13;;;;;;;6.85;2.87;;;;;;;2.40;69.80;98147.92;1674292;85;21672;-57
2021/01/26 13:10:41;;;;;;;4.12;2.52;;;;;;;2.40;70.06;98144.87;1688038;82;21500;-56
2021/01/26 13:13:10;;;;;;;7.50;4.17;;;;;;;2.42;69.79;98133.11;1648896;85;21577;-56
2021/01/26 13:15:38;;;;;;;4.60;2.58;;;;;;;2.46;69.67;98151.22;1731693;82;21610;-56
2021/01/26 13:18:06;;;;;;;7.25;3.67;;;;;;;2.46;69.67;98151.22;1728570;82;21352;-56
2021/01/26 13:20:35;;;;;;;8.25;4.17;;;;;;;2.48;69.52;98147.20;1721351;82;21197;-57
2021/01/26 13:23:04;;;;;;;6.53;3.58;;;;;;;2.46;69.35;98147.83;1711053;82;21650;-56
2021/01/26 13:25:32;;;;;;;8.15;4.05;;;;;;;2.42;69.12;98150.70;1734437;82;21706;-58
2021/01/26 13:28:02;;;;;;;3.92;2.55;;;;;;;2.40;69.57;98133.27;1739883;82;21929;-58
2021/01/26 13:30:31;;;;;;;18.27;8.00;;;;;;;2.43;69.42;98148.94;1739919;82;21257;-58
2021/01/26 13:33:00;;;;;;;16.25;7.35;;;;;;;2.44;69.22;98153.14;1732631;81;21558;-57
2021/01/26 13:35:30;;;;;;;18.25;7.12;;;;;;;2.39;69.26;98147.59;1742011;82;21182;-57
2021/01/26 13:38:00;;;;;;;17.35;7.10;;;;;;;2.34;69.46;98139.48;1737621;82;21179;-58
2021/01/26 13:40:28;;;;;;;16.42;7.22;;;;;;;2.34;69.56;98156.23;1739497;82;21159;-58
2021/01/26 13:42:58;;;;;;;20.75;10.75;;;;;;;2.31;69.59;98153.47;1742355;82;21695;-57
2021/01/26 13:45:29;;;;;;;16.60;7.50;;;;;;;2.30;69.83;98166.48;1746429;81;21614;-58
2021/01/26 13:47:59;;;;;;;12.82;5.65;;;;;;;2.29;70.06;98168.25;1740389;82;21143;-58
2021/01/26 13:50:33;;;;;;;7.28;4.12;;;;;;;2.29;70.19;98160.52;1717794;82;21570;-58
2021/01/26 13:53:01;;;;;;;6.00;3.33;;;;;;;2.30;70.02;98154.88;1730874;82;21281;-57
2021/01/26 13:55:31;;;;;;;7.10;4.22;;;;;;;2.31;70.00;98170.70;1729599;81;21749;-58
2021/01/26 13:58:00;;;;;;;7.15;3.72;;;;;;;2.27;70.07;98160.34;1733158;82;21226;-57
2021/01/26 14:00:32;;;;;;;5.42;3.70;;;;;;;2.25;70.25;98159.20;1723889;81;21111;-58
2021/01/26 14:03:01;;;;;;;3.42;2.62;;;;;;;2.24;70.19;98180.77;1741906;82;21298;-58
2021/01/26 14:05:32;;;;;;;4.00;2.77;;;;;;;2.24;70.26;98165.79;1735395;82;21495;-57
2021/01/26 14:08:01;;;;;;;4.75;2.77;;;;;;;2.24;70.26;98165.79;1747270;82;21199;-58
2021/01/26 14:10:33;;;;;;;5.12;2.37;;;;;;;2.25;70.11;98179.81;1747964;82;21194;-57
2021/01/26 14:13:03;;;;;;;5.47;3.00;;;;;;;2.26;70.05;98176.28;1748568;82;21174;-57
2021/01/26 14:15:31;;;;;;;3.85;3.08;;;;;;;2.24;69.95;98174.33;1748284;82;21167;-57
2021/01/26 14:18:02;;;;;;;3.42;2.47;;;;;;;2.21;70.07;98172.02;1748018;82;21210;-58
2021/01/26 14:20:31;;;;;;;4.55;2.83;;;;;;;2.23;69.96;98179.60;1748322;82;21581;-58
2021/01/26 14:22:59;;;;;;;2.80;2.50;;;;;;;2.20;70.05;98186.34;1748388;82;21582;-56
2021/01/26 14:25:28;;;;;;;4.70;2.60;;;;;;;2.21;70.35;98187.48;1750665;82;21138;-57
2021/01/26 14:27:57;;;;;;;4.20;3.05;;;;;;;2.23;70.26;98184.75;1749077;82;21621;-57
2021/01/26 14:30:25;;;;;;;5.10;3.77;;;;;;;2.25;70.28;98197.86;1709814;83;21274;-58
2021/01/26 14:32:54;;;;;;;5.72;3.30;;;;;;;2.24;70.13;98184.64;1752522;82;21677;-57
2021/01/26 14:35:28;;;;;;;4.80;3.50;;;;;;;2.24;69.99;98194.95;1747930;81;21535;-57
2021/01/26 14:37:56;;;;;;;5.35;3.10;;;;;;;2.22;70.12;98190.87;1726337;81;21584;-56
2021/01/26 14:40:25;;;;;;;4.25;3.33;;;;;;;2.21;70.04;98202.14;1693759;84;21288;-57
2021/01/26 14:42:54;;;;;;;3.35;2.45;;;;;;;2.20;70.15;98206.95;1745177;82;21584;-58
2021/01/26 14:45:22;;;;;;;6.12;2.77;;;;;;;2.17;70.01;98193.86;1733476;82;21132;-58
2021/01/26 14:47:51;;;;;;;5.67;3.47;;;;;;;2.21;70.09;98210.67;1747045;82;21203;-60
2021/01/26 14:50:21;;;;;;;7.12;3.35;;;;;;;2.23;70.12;98209.23;1747003;82;21752;-57
2021/01/26 14:52:50;;;;;;;4.90;3.17;;;;;;;2.25;70.22;98211.22;1747397;82;21202;-58
2021/01/26 14:55:18;;;;;;;3.90;3.15;;;;;;;2.26;70.18;98221.86;1748417;82;21574;-57
2021/01/26 14:58:06;;;;;;;2.98;2.60;;;;;;;2.23;70.02;98215.20;1748141;82;21705;-57
2021/01/26 15:00:34;;;;;;;3.12;2.60;;;;;;;2.21;70.01;98216.30;1680018;85;21202;-57
2021/01/26 15:03:03;;;;;;;4.90;2.90;;;;;;;2.16;70.26;98203.36;1669672;86;21799;-56
2021/01/26 15:05:32;;;;;;;4.37;3.10;;;;;;;2.16;70.26;98203.36;1707966;83;21190;-56
2021/01/26 15:08:01;;;;;;;10.40;5.28;;;;;;;2.19;70.16;98220.80;1698063;83;21555;-58
